Terminal Aerodrome Forecast
Issued by NWS

Home | Current Version | Previous Version | Text Only | Print | Product List | Glossary On
Versions: 1 2 3 4 5 6 7 8 9 10 11 12
000
FTUS42 KMLB 211100
TAFSUA
TAF
KSUA 211128Z 2112/2212 VRB03KT P6SM FEW035 SCT250
     FM211600 09010KT P6SM VCTS SCT040CB SCT250
     FM220000 12007KT P6SM FEW040 FEW250=

USA.gov is the U.S. government's official web portal to all federal, state and local government web resources and services.